Portada
METAR-TAF:

METAR-TAF

Aeroports :

Djibouti, Djibouti

latitud: 11-33N, longitud: 043-10E, altitud: 49 m

Observació

L'informe es va fer fa 5 hores i 0 minuts, a les 04:00 UTC
Vent 3 kt del Oest
Temperatura 25°C
Humitat 83%
Pressió 1017 hPa
Visibilitat 10 km o més
Escasses núvols a una alçada de 2300 ft

METAR: HDAM 190400Z 26003KT 9999 FEW023 25/22 Q1017

Hora: 12:00 (09:00 UTC)

Pronòstic

L'informe es va fer fa 10 hores i 0 minuts, a les 23:00 UTC
Pronòstic vàlid del 19 a les 00 UTC al 19 a les 24 UTC
Vent kt del Nord
Visibilitat 10 km o més
Núvols disperses a una alçada de 2000 ft
Evolucionant progressivament
l' 19 a les 06 UTC al 19 a les 12 UTC
Vent 10 kt del Est
Núvols disperses a una alçada de 2300 ft
Evolucionant progressivament
l' 19 a les 15 UTC al 19 a les 18 UTC
Vent 5 kt amb direcció variable

TAF: HDAM 182300Z 1900/1924 00000KT 9999 SCT020 BECMG 1906/1912 10010KT SCT023 BECMG 1915/1918 VRB05KT

Observacions i pronòstics meteorològics de més de 4000 aeroports (METAR i TAF).

Les estacions disponibles són els punts grocs i vermells al mapa.

Posi el ratolí al punt desitjat per veure el nom de l'estació.

Feu clic per veure les observacions i els pronòstics meteorològics.

Per canviar el mapa: feu clic els botons verds amb una creu de color negre per apropar; al botó verd amb un guió per allunyar la imatge; o en les fletxes verdes per a mapes adjacents.


METAR-TAF: